Peru, Massachusetts
Current Conditions -  °F | °C
As of 4:54 AM on Monday 20 Oct 2014 (Local Time) from KPSF Reporting Station
Clear Clear  
Wind Chill: 27°   Ceiling: Unl
Heat Index: 33°   Visibility: 10mi
Dew Point: 28°   Wind: 7mph
Humidity: 82%   Direction: 290°WNW
Pressure: 30"   Gusts: NA
Location:  42.4301°N, 73.0667°W
Report Text: KPSF 200854Z AUTO 29006KT 10SM CLR 01/M02 A3000 RMK AO2 SLP162 T00061022 55000
Loading
Personal Weather Stations






























Interactive Weather Map
Tropical Storm Tracking
New forecast layout! Learn more

10-Day Weather Forecast

Advertisements
Track Severe Weather on mobile